Huvudsida
METAR-TAF:

METAR-TAF

Flygplatser :

Mariehamns flygplats

Mariehamn, Finland

latitud: 60-07N, longitud: 019-54E, höjd: 6 m

Aktuellt väderrapport

Denna rapport gjordes för 22 minuter sedan, klockan 04:50 UTC
Vind 2 kt varierande vindriktning
Temperatur 6°C
Fuktighet 87%
Tryck 1035 hPa
Sikt 10 km eller mer
Inga moln under 1 500 m eller inga cumulonimbus

METAR: EFMA 170450Z AUTO VRB02KT CAVOK 06/04 Q1035

Tid: 07:12 (05:12 UTC)

Väderprognos

Denna rapport gjordes för 2 timmar och 44 minuter sedan, klockan 02:28 UTC
Prognos gäller från 17 kl. 03 UTC till 17 kl. 12 UTC
Vind 6 kt från väst/sydväst
Sikt 10 km eller mer
Inga moln under 1 500 m eller inga cumulonimbus

TAF: EFMA 170228Z 1703/1712 24006KT CAVOK

Aktuella väderrapporter och prognoser från 4000 flygplatser (METAR- och TAF-rapporter).

De tillgängliga stationerna syns som gula och röda prickar på kartan.

För musen över prickarna för att se namnen på stationerna.

Klicka sedan för att få väderrapporter och prognoser.

För att ändra kartan: Klicka på de gröna knapparna med ett svart kors på för att zooma in; den gröna knappen med ett streck på för att zooma ut; eller på de gröna pilarna för angränsande kartor.


METAR-TAF: